sensor_id;sensor_type;location;lat;lon;timestamp;P1;durP1;ratioP1;P2;durP2;ratioP2
69917;SDS011;57203;42.672;23.334;2022-10-16T00:00:24;11.2;;;5.7;;
69917;SDS011;57203;42.672;23.334;2022-10-16T00:01:25;10.0;;;4.7;;
69917;SDS011;57203;42.672;23.334;2022-10-16T00:02:24;7.4;;;5.7;;
69917;SDS011;57203;42.672;23.334;2022-10-16T00:03:24;10.9;;;5.5;;
69917;SDS011;57203;42.672;23.334;2022-10-16T00:04:24;9.5;;;4.9;;
69917;SDS011;57203;42.672;23.334;2022-10-16T00:05:24;8.2;;;5.5;;
69917;SDS011;57203;42.672;23.334;2022-10-16T00:06:26;10.5;;;5.2;;
69917;SDS011;57203;42.672;23.334;2022-10-16T00:07:25;8.2;;;5.7;;
69917;SDS011;57203;42.672;23.334;2022-10-16T00:08:25;11.4;;;4.9;;
69917;SDS011;57203;42.672;23.334;2022-10-16T00:09:25;9.1;;;5.0;;
69917;SDS011;57203;42.672;23.334;2022-10-16T00:10:25;10.6;;;4.8;;
69917;SDS011;57203;42.672;23.334;2022-10-16T00:11:26;8.8;;;4.5;;
69917;SDS011;57203;42.672;23.334;2022-10-16T00:12:26;8.0;;;5.0;;
69917;SDS011;57203;42.672;23.334;2022-10-16T00:13:26;8.8;;;4.5;;
69917;SDS011;57203;42.672;23.334;2022-10-16T00:14:26;7.0;;;4.7;;
69917;SDS011;57203;42.672;23.334;2022-10-16T00:15:26;9.4;;;5.2;;
69917;SDS011;57203;42.672;23.334;2022-10-16T00:16:27;9.4;;;5.0;;
69917;SDS011;57203;42.672;23.334;2022-10-16T00:20:27;7.4;;;3.8;;
69917;SDS011;57203;42.672;23.334;2022-10-16T00:21:28;7.3;;;4.8;;
69917;SDS011;57203;42.672;23.334;2022-10-16T00:22:28;6.9;;;4.5;;
69917;SDS011;57203;42.672;23.334;2022-10-16T00:23:28;6.9;;;4.8;;
69917;SDS011;57203;42.672;23.334;2022-10-16T00:24:28;7.7;;;3.9;;
69917;SDS011;57203;42.672;23.334;2022-10-16T00:25:28;7.0;;;4.2;;
69917;SDS011;57203;42.672;23.334;2022-10-16T00:26:29;8.2;;;5.0;;
69917;SDS011;57203;42.672;23.334;2022-10-16T00:27:28;8.2;;;4.4;;
69917;SDS011;57203;42.672;23.334;2022-10-16T00:28:29;8.2;;;4.0;;
69917;SDS011;57203;42.672;23.334;2022-10-16T00:29:29;7.3;;;4.1;;
69917;SDS011;57203;42.672;23.334;2022-10-16T00:30:29;7.3;;;4.8;;
69917;SDS011;57203;42.672;23.334;2022-10-16T00:31:29;7.9;;;4.1;;
69917;SDS011;57203;42.672;23.334;2022-10-16T00:32:29;7.4;;;4.2;;
69917;SDS011;57203;42.672;23.334;2022-10-16T00:33:29;6.8;;;4.1;;
69917;SDS011;57203;42.672;23.334;2022-10-16T00:34:30;5.8;;;3.7;;
69917;SDS011;57203;42.672;23.334;2022-10-16T00:36:30;4.7;;;3.9;;
69917;SDS011;57203;42.672;23.334;2022-10-16T00:37:30;7.4;;;3.8;;
69917;SDS011;57203;42.672;23.334;2022-10-16T00:38:30;5.5;;;4.5;;
69917;SDS011;57203;42.672;23.334;2022-10-16T00:39:31;6.3;;;4.1;;
69917;SDS011;57203;42.672;23.334;2022-10-16T00:41:31;7.0;;;4.7;;
69917;SDS011;57203;42.672;23.334;2022-10-16T00:42:31;7.5;;;4.2;;
69917;SDS011;57203;42.672;23.334;2022-10-16T00:43:34;7.4;;;3.6;;
69917;SDS011;57203;42.672;23.334;2022-10-16T00:45:32;10.0;;;4.3;;
69917;SDS011;57203;42.672;23.334;2022-10-16T00:46:34;8.1;;;4.2;;
69917;SDS011;57203;42.672;23.334;2022-10-16T00:47:34;8.1;;;4.5;;
69917;SDS011;57203;42.672;23.334;2022-10-16T00:48:32;8.7;;;3.6;;
69917;SDS011;57203;42.672;23.334;2022-10-16T00:49:32;4.9;;;4.4;;
69917;SDS011;57203;42.672;23.334;2022-10-16T00:50:33;7.3;;;4.3;;
69917;SDS011;57203;42.672;23.334;2022-10-16T00:51:34;6.7;;;4.5;;
69917;SDS011;57203;42.672;23.334;2022-10-16T00:52:33;8.6;;;4.0;;
69917;SDS011;57203;42.672;23.334;2022-10-16T00:53:33;6.5;;;4.2;;
69917;SDS011;57203;42.672;23.334;2022-10-16T00:54:33;7.6;;;5.2;;
69917;SDS011;57203;42.672;23.334;2022-10-16T00:55:34;8.5;;;5.0;;
69917;SDS011;57203;42.672;23.334;2022-10-16T00:56:34;8.5;;;4.6;;
69917;SDS011;57203;42.672;23.334;2022-10-16T00:57:34;8.0;;;4.9;;
69917;SDS011;57203;42.672;23.334;2022-10-16T00:58:34;8.0;;;4.2;;
69917;SDS011;57203;42.672;23.334;2022-10-16T00:59:35;7.9;;;5.2;;
69917;SDS011;57203;42.672;23.334;2022-10-16T01:00:35;11.3;;;4.4;;
69917;SDS011;57203;42.672;23.334;2022-10-16T01:01:35;7.7;;;4.1;;
69917;SDS011;57203;42.672;23.334;2022-10-16T01:02:35;6.7;;;3.8;;
69917;SDS011;57203;42.672;23.334;2022-10-16T01:03:36;7.2;;;4.1;;
69917;SDS011;57203;42.672;23.334;2022-10-16T01:04:37;7.4;;;4.3;;
69917;SDS011;57203;42.672;23.334;2022-10-16T01:06:37;7.5;;;5.0;;
69917;SDS011;57203;42.672;23.334;2022-10-16T01:07:38;6.5;;;4.4;;
69917;SDS011;57203;42.672;23.334;2022-10-16T01:08:39;6.5;;;3.7;;
69917;SDS011;57203;42.672;23.334;2022-10-16T01:10:37;5.6;;;3.8;;
69917;SDS011;57203;42.672;23.334;2022-10-16T01:12:39;7.2;;;4.4;;
69917;SDS011;57203;42.672;23.334;2022-10-16T01:13:38;8.4;;;5.1;;
69917;SDS011;57203;42.672;23.334;2022-10-16T01:14:39;8.6;;;4.4;;
69917;SDS011;57203;42.672;23.334;2022-10-16T01:15:38;9.3;;;4.5;;
69917;SDS011;57203;42.672;23.334;2022-10-16T01:16:38;7.3;;;4.1;;
69917;SDS011;57203;42.672;23.334;2022-10-16T01:17:39;7.9;;;4.0;;
69917;SDS011;57203;42.672;23.334;2022-10-16T01:18:39;7.9;;;3.8;;
69917;SDS011;57203;42.672;23.334;2022-10-16T01:19:46;5.8;;;4.1;;
69917;SDS011;57203;42.672;23.334;2022-10-16T01:20:40;6.2;;;4.0;;
69917;SDS011;57203;42.672;23.334;2022-10-16T01:21:39;5.9;;;3.9;;
69917;SDS011;57203;42.672;23.334;2022-10-16T01:23:42;6.9;;;4.2;;
69917;SDS011;57203;42.672;23.334;2022-10-16T01:24:39;8.5;;;4.8;;
69917;SDS011;57203;42.672;23.334;2022-10-16T01:25:49;8.8;;;4.6;;
69917;SDS011;57203;42.672;23.334;2022-10-16T01:26:47;8.5;;;4.8;;
69917;SDS011;57203;42.672;23.334;2022-10-16T01:27:39;7.8;;;5.1;;
69917;SDS011;57203;42.672;23.334;2022-10-16T01:28:41;8.5;;;5.8;;
69917;SDS011;57203;42.672;23.334;2022-10-16T01:29:42;10.3;;;5.5;;
69917;SDS011;57203;42.672;23.334;2022-10-16T01:30:40;6.5;;;4.2;;
69917;SDS011;57203;42.672;23.334;2022-10-16T01:32:41;7.2;;;4.6;;
69917;SDS011;57203;42.672;23.334;2022-10-16T01:33:42;7.2;;;4.0;;
69917;SDS011;57203;42.672;23.334;2022-10-16T01:35:41;5.5;;;4.4;;
69917;SDS011;57203;42.672;23.334;2022-10-16T01:36:43;9.5;;;4.2;;
69917;SDS011;57203;42.672;23.334;2022-10-16T01:37:42;6.1;;;4.1;;
69917;SDS011;57203;42.672;23.334;2022-10-16T01:38:42;7.3;;;4.5;;
69917;SDS011;57203;42.672;23.334;2022-10-16T01:39:42;6.8;;;4.8;;
69917;SDS011;57203;42.672;23.334;2022-10-16T01:40:43;10.1;;;4.2;;
69917;SDS011;57203;42.672;23.334;2022-10-16T01:41:43;10.1;;;4.4;;
69917;SDS011;57203;42.672;23.334;2022-10-16T01:42:44;6.7;;;4.3;;
69917;SDS011;57203;42.672;23.334;2022-10-16T01:43:43;7.6;;;4.8;;
69917;SDS011;57203;42.672;23.334;2022-10-16T01:44:42;9.6;;;4.3;;
69917;SDS011;57203;42.672;23.334;2022-10-16T01:45:43;9.4;;;5.3;;
69917;SDS011;57203;42.672;23.334;2022-10-16T01:46:43;9.4;;;5.1;;
69917;SDS011;57203;42.672;23.334;2022-10-16T01:47:43;9.7;;;4.9;;
69917;SDS011;57203;42.672;23.334;2022-10-16T01:48:43;8.8;;;5.4;;
69917;SDS011;57203;42.672;23.334;2022-10-16T01:49:43;8.9;;;6.1;;
69917;SDS011;57203;42.672;23.334;2022-10-16T01:50:44;9.3;;;5.6;;
69917;SDS011;57203;42.672;23.334;2022-10-16T01:51:44;8.7;;;6.3;;
69917;SDS011;57203;42.672;23.334;2022-10-16T01:52:44;11.0;;;7.4;;
69917;SDS011;57203;42.672;23.334;2022-10-16T01:53:46;11.8;;;6.4;;
69917;SDS011;57203;42.672;23.334;2022-10-16T01:54:45;9.6;;;6.1;;
69917;SDS011;57203;42.672;23.334;2022-10-16T01:55:46;9.5;;;7.0;;
69917;SDS011;57203;42.672;23.334;2022-10-16T01:56:45;11.5;;;6.3;;
69917;SDS011;57203;42.672;23.334;2022-10-16T01:57:46;9.1;;;6.9;;
69917;SDS011;57203;42.672;23.334;2022-10-16T01:58:48;11.4;;;7.2;;
69917;SDS011;57203;42.672;23.334;2022-10-16T01:59:46;10.7;;;5.9;;
69917;SDS011;57203;42.672;23.334;2022-10-16T02:00:45;9.6;;;7.1;;
69917;SDS011;57203;42.672;23.334;2022-10-16T02:01:47;12.6;;;7.3;;
69917;SDS011;57203;42.672;23.334;2022-10-16T02:02:46;12.4;;;7.7;;
69917;SDS011;57203;42.672;23.334;2022-10-16T02:03:46;13.7;;;7.9;;
69917;SDS011;57203;42.672;23.334;2022-10-16T02:04:47;13.6;;;8.9;;
69917;SDS011;57203;42.672;23.334;2022-10-16T02:05:47;14.5;;;8.7;;
69917;SDS011;57203;42.672;23.334;2022-10-16T02:06:46;13.3;;;7.9;;
69917;SDS011;57203;42.672;23.334;2022-10-16T02:07:47;13.3;;;10.1;;
69917;SDS011;57203;42.672;23.334;2022-10-16T02:08:47;17.1;;;8.8;;
69917;SDS011;57203;42.672;23.334;2022-10-16T02:10:47;14.5;;;9.3;;
69917;SDS011;57203;42.672;23.334;2022-10-16T02:12:49;15.3;;;9.2;;
69917;SDS011;57203;42.672;23.334;2022-10-16T02:13:48;15.3;;;8.9;;
69917;SDS011;57203;42.672;23.334;2022-10-16T02:14:48;14.3;;;8.5;;
69917;SDS011;57203;42.672;23.334;2022-10-16T02:16:48;13.7;;;8.3;;
69917;SDS011;57203;42.672;23.334;2022-10-16T02:17:48;13.7;;;8.2;;
69917;SDS011;57203;42.672;23.334;2022-10-16T02:18:48;13.9;;;8.0;;
69917;SDS011;57203;42.672;23.334;2022-10-16T02:19:49;13.8;;;8.7;;
69917;SDS011;57203;42.672;23.334;2022-10-16T02:20:51;14.3;;;8.2;;
69917;SDS011;57203;42.672;23.334;2022-10-16T02:21:50;14.8;;;7.9;;
69917;SDS011;57203;42.672;23.334;2022-10-16T02:22:49;13.9;;;7.3;;
69917;SDS011;57203;42.672;23.334;2022-10-16T02:23:50;11.8;;;6.9;;
69917;SDS011;57203;42.672;23.334;2022-10-16T02:25:50;12.5;;;7.2;;
69917;SDS011;57203;42.672;23.334;2022-10-16T02:26:51;11.8;;;6.5;;
69917;SDS011;57203;42.672;23.334;2022-10-16T02:27:52;11.8;;;6.6;;
69917;SDS011;57203;42.672;23.334;2022-10-16T02:28:52;12.1;;;7.1;;
69917;SDS011;57203;42.672;23.334;2022-10-16T02:29:52;12.3;;;5.7;;
69917;SDS011;57203;42.672;23.334;2022-10-16T02:30:51;9.0;;;6.3;;
69917;SDS011;57203;42.672;23.334;2022-10-16T02:31:52;9.7;;;6.6;;
69917;SDS011;57203;42.672;23.334;2022-10-16T02:33:51;12.1;;;6.2;;
69917;SDS011;57203;42.672;23.334;2022-10-16T02:34:51;9.7;;;6.1;;
69917;SDS011;57203;42.672;23.334;2022-10-16T02:35:51;9.6;;;6.4;;
69917;SDS011;57203;42.672;23.334;2022-10-16T02:36:52;9.2;;;6.1;;
69917;SDS011;57203;42.672;23.334;2022-10-16T02:37:52;9.2;;;5.5;;
69917;SDS011;57203;42.672;23.334;2022-10-16T02:38:52;9.2;;;6.5;;
69917;SDS011;57203;42.672;23.334;2022-10-16T02:39:52;12.1;;;5.6;;
69917;SDS011;57203;42.672;23.334;2022-10-16T02:40:52;9.5;;;4.7;;
69917;SDS011;57203;42.672;23.334;2022-10-16T02:41:52;9.0;;;5.0;;
69917;SDS011;57203;42.672;23.334;2022-10-16T02:42:53;8.1;;;5.8;;
69917;SDS011;57203;42.672;23.334;2022-10-16T02:43:53;10.7;;;5.5;;
69917;SDS011;57203;42.672;23.334;2022-10-16T02:44:53;9.4;;;5.4;;
69917;SDS011;57203;42.672;23.334;2022-10-16T02:45:53;7.3;;;5.0;;
69917;SDS011;57203;42.672;23.334;2022-10-16T02:46:53;7.3;;;6.1;;
69917;SDS011;57203;42.672;23.334;2022-10-16T02:47:53;10.5;;;5.5;;
69917;SDS011;57203;42.672;23.334;2022-10-16T02:48:54;7.7;;;5.9;;
69917;SDS011;57203;42.672;23.334;2022-10-16T02:49:55;9.8;;;4.9;;
69917;SDS011;57203;42.672;23.334;2022-10-16T02:50:54;9.2;;;5.4;;
69917;SDS011;57203;42.672;23.334;2022-10-16T02:51:54;8.3;;;4.8;;
69917;SDS011;57203;42.672;23.334;2022-10-16T02:52:54;7.6;;;4.9;;
69917;SDS011;57203;42.672;23.334;2022-10-16T02:53:54;8.5;;;5.3;;
69917;SDS011;57203;42.672;23.334;2022-10-16T02:54:55;7.6;;;5.2;;
69917;SDS011;57203;42.672;23.334;2022-10-16T02:55:55;9.5;;;4.7;;
69917;SDS011;57203;42.672;23.334;2022-10-16T02:56:55;7.5;;;4.9;;
69917;SDS011;57203;42.672;23.334;2022-10-16T02:57:55;7.0;;;5.2;;
69917;SDS011;57203;42.672;23.334;2022-10-16T02:58:55;8.1;;;5.0;;
69917;SDS011;57203;42.672;23.334;2022-10-16T02:59:56;8.3;;;5.2;;
69917;SDS011;57203;42.672;23.334;2022-10-16T03:00:56;7.2;;;5.3;;
69917;SDS011;57203;42.672;23.334;2022-10-16T03:01:56;9.1;;;4.7;;
69917;SDS011;57203;42.672;23.334;2022-10-16T03:03:56;7.4;;;4.5;;
69917;SDS011;57203;42.672;23.334;2022-10-16T03:04:56;7.4;;;4.9;;
69917;SDS011;57203;42.672;23.334;2022-10-16T03:05:57;6.8;;;4.1;;
69917;SDS011;57203;42.672;23.334;2022-10-16T03:06:57;6.7;;;4.4;;
69917;SDS011;57203;42.672;23.334;2022-10-16T03:07:57;6.7;;;4.6;;
69917;SDS011;57203;42.672;23.334;2022-10-16T03:08:57;6.1;;;4.2;;
69917;SDS011;57203;42.672;23.334;2022-10-16T03:09:57;6.1;;;4.6;;
69917;SDS011;57203;42.672;23.334;2022-10-16T03:10:57;6.1;;;4.8;;
69917;SDS011;57203;42.672;23.334;2022-10-16T03:11:58;7.5;;;4.3;;
69917;SDS011;57203;42.672;23.334;2022-10-16T03:12:58;6.6;;;4.6;;
69917;SDS011;57203;42.672;23.334;2022-10-16T03:14:58;5.7;;;4.5;;
69917;SDS011;57203;42.672;23.334;2022-10-16T03:15:58;6.4;;;4.0;;
69917;SDS011;57203;42.672;23.334;2022-10-16T03:16:58;4.9;;;4.3;;
69917;SDS011;57203;42.672;23.334;2022-10-16T03:17:59;6.7;;;4.6;;
69917;SDS011;57203;42.672;23.334;2022-10-16T03:18:59;7.3;;;4.8;;
69917;SDS011;57203;42.672;23.334;2022-10-16T03:19:59;7.3;;;4.9;;
69917;SDS011;57203;42.672;23.334;2022-10-16T03:20:59;6.7;;;4.7;;
69917;SDS011;57203;42.672;23.334;2022-10-16T03:21:59;6.0;;;4.5;;
69917;SDS011;57203;42.672;23.334;2022-10-16T03:23:00;7.4;;;4.4;;
69917;SDS011;57203;42.672;23.334;2022-10-16T03:25:00;7.3;;;4.8;;
69917;SDS011;57203;42.672;23.334;2022-10-16T03:26:00;8.8;;;5.6;;
69917;SDS011;57203;42.672;23.334;2022-10-16T03:27:00;7.4;;;4.9;;
69917;SDS011;57203;42.672;23.334;2022-10-16T03:28:00;6.8;;;4.6;;
69917;SDS011;57203;42.672;23.334;2022-10-16T03:29:01;6.7;;;4.2;;
69917;SDS011;57203;42.672;23.334;2022-10-16T03:30:01;5.4;;;4.8;;
69917;SDS011;57203;42.672;23.334;2022-10-16T03:32:01;7.0;;;4.7;;
69917;SDS011;57203;42.672;23.334;2022-10-16T03:33:01;5.9;;;5.6;;
69917;SDS011;57203;42.672;23.334;2022-10-16T03:34:01;7.3;;;5.9;;
69917;SDS011;57203;42.672;23.334;2022-10-16T03:35:02;7.3;;;5.6;;
69917;SDS011;57203;42.672;23.334;2022-10-16T03:36:02;6.8;;;4.9;;
69917;SDS011;57203;42.672;23.334;2022-10-16T03:37:02;6.6;;;4.4;;
69917;SDS011;57203;42.672;23.334;2022-10-16T03:38:02;6.8;;;4.3;;
69917;SDS011;57203;42.672;23.334;2022-10-16T03:39:02;5.8;;;4.4;;
69917;SDS011;57203;42.672;23.334;2022-10-16T03:40:03;7.3;;;4.3;;
69917;SDS011;57203;42.672;23.334;2022-10-16T03:42:03;7.2;;;4.2;;
69917;SDS011;57203;42.672;23.334;2022-10-16T03:43:03;7.6;;;4.5;;
69917;SDS011;57203;42.672;23.334;2022-10-16T03:46:04;6.7;;;4.1;;
69917;SDS011;57203;42.672;23.334;2022-10-16T03:48:04;6.3;;;4.8;;
69917;SDS011;57203;42.672;23.334;2022-10-16T03:49:04;6.8;;;5.3;;
69917;SDS011;57203;42.672;23.334;2022-10-16T03:50:05;8.5;;;4.6;;
69917;SDS011;57203;42.672;23.334;2022-10-16T03:51:04;6.2;;;4.3;;
69917;SDS011;57203;42.672;23.334;2022-10-16T03:52:04;7.4;;;4.2;;
69917;SDS011;57203;42.672;23.334;2022-10-16T03:53:05;5.5;;;4.8;;
69917;SDS011;57203;42.672;23.334;2022-10-16T03:54:05;6.0;;;4.6;;
69917;SDS011;57203;42.672;23.334;2022-10-16T03:55:05;6.6;;;4.3;;
69917;SDS011;57203;42.672;23.334;2022-10-16T03:56:05;6.6;;;4.6;;
69917;SDS011;57203;42.672;23.334;2022-10-16T03:57:05;6.6;;;4.2;;
69917;SDS011;57203;42.672;23.334;2022-10-16T03:59:06;7.3;;;4.0;;
69917;SDS011;57203;42.672;23.334;2022-10-16T04:00:06;5.4;;;4.1;;
69917;SDS011;57203;42.672;23.334;2022-10-16T04:01:06;6.5;;;4.5;;
69917;SDS011;57203;42.672;23.334;2022-10-16T04:02:06;7.6;;;4.3;;
69917;SDS011;57203;42.672;23.334;2022-10-16T04:03:06;6.9;;;4.5;;
69917;SDS011;57203;42.672;23.334;2022-10-16T04:04:06;7.1;;;4.4;;
69917;SDS011;57203;42.672;23.334;2022-10-16T04:06:07;5.5;;;4.3;;
69917;SDS011;57203;42.672;23.334;2022-10-16T04:07:07;5.5;;;4.4;;
69917;SDS011;57203;42.672;23.334;2022-10-16T04:08:07;5.4;;;3.9;;
69917;SDS011;57203;42.672;23.334;2022-10-16T04:09:07;6.4;;;3.7;;
69917;SDS011;57203;42.672;23.334;2022-10-16T04:10:08;5.3;;;4.4;;
69917;SDS011;57203;42.672;23.334;2022-10-16T04:11:08;6.1;;;4.8;;
69917;SDS011;57203;42.672;23.334;2022-10-16T04:12:08;8.3;;;3.8;;
69917;SDS011;57203;42.672;23.334;2022-10-16T04:13:08;7.0;;;4.4;;
69917;SDS011;57203;42.672;23.334;2022-10-16T04:14:08;7.0;;;3.9;;
69917;SDS011;57203;42.672;23.334;2022-10-16T04:15:08;6.4;;;4.4;;
69917;SDS011;57203;42.672;23.334;2022-10-16T04:16:09;7.4;;;4.5;;
69917;SDS011;57203;42.672;23.334;2022-10-16T04:17:09;6.9;;;4.7;;
69917;SDS011;57203;42.672;23.334;2022-10-16T04:18:09;7.2;;;4.3;;
69917;SDS011;57203;42.672;23.334;2022-10-16T04:19:09;7.3;;;4.0;;
69917;SDS011;57203;42.672;23.334;2022-10-16T04:20:09;5.3;;;4.1;;
69917;SDS011;57203;42.672;23.334;2022-10-16T04:21:09;6.5;;;4.4;;
69917;SDS011;57203;42.672;23.334;2022-10-16T04:22:10;7.5;;;4.6;;
69917;SDS011;57203;42.672;23.334;2022-10-16T04:23:10;7.4;;;4.3;;
69917;SDS011;57203;42.672;23.334;2022-10-16T04:24:10;8.6;;;4.8;;
69917;SDS011;57203;42.672;23.334;2022-10-16T04:25:10;8.7;;;5.2;;
69917;SDS011;57203;42.672;23.334;2022-10-16T04:26:11;7.9;;;4.7;;
69917;SDS011;57203;42.672;23.334;2022-10-16T04:27:10;7.9;;;5.4;;
69917;SDS011;57203;42.672;23.334;2022-10-16T04:28:11;8.5;;;5.5;;
69917;SDS011;57203;42.672;23.334;2022-10-16T04:29:11;8.8;;;5.4;;
69917;SDS011;57203;42.672;23.334;2022-10-16T04:30:11;7.7;;;5.2;;
69917;SDS011;57203;42.672;23.334;2022-10-16T04:31:11;8.3;;;5.1;;
69917;SDS011;57203;42.672;23.334;2022-10-16T04:32:11;7.1;;;5.2;;
69917;SDS011;57203;42.672;23.334;2022-10-16T04:33:12;10.2;;;5.9;;
69917;SDS011;57203;42.672;23.334;2022-10-16T04:34:12;9.3;;;5.6;;
69917;SDS011;57203;42.672;23.334;2022-10-16T04:35:12;8.1;;;4.8;;
69917;SDS011;57203;42.672;23.334;2022-10-16T04:36:12;6.6;;;5.1;;
69917;SDS011;57203;42.672;23.334;2022-10-16T04:37:12;7.0;;;5.8;;
69917;SDS011;57203;42.672;23.334;2022-10-16T04:38:13;7.0;;;5.1;;
69917;SDS011;57203;42.672;23.334;2022-10-16T04:39:12;7.0;;;4.4;;
69917;SDS011;57203;42.672;23.334;2022-10-16T04:40:13;6.3;;;4.6;;
69917;SDS011;57203;42.672;23.334;2022-10-16T04:41:13;9.0;;;6.0;;
69917;SDS011;57203;42.672;23.334;2022-10-16T04:42:13;9.0;;;4.5;;
69917;SDS011;57203;42.672;23.334;2022-10-16T04:43:13;8.6;;;5.0;;
69917;SDS011;57203;42.672;23.334;2022-10-16T04:44:13;8.0;;;4.7;;
69917;SDS011;57203;42.672;23.334;2022-10-16T04:45:14;8.0;;;5.4;;
69917;SDS011;57203;42.672;23.334;2022-10-16T04:46:14;7.1;;;4.9;;
69917;SDS011;57203;42.672;23.334;2022-10-16T04:48:14;7.3;;;4.6;;
69917;SDS011;57203;42.672;23.334;2022-10-16T04:49:14;6.7;;;4.9;;
69917;SDS011;57203;42.672;23.334;2022-10-16T04:50:15;6.8;;;4.5;;
69917;SDS011;57203;42.672;23.334;2022-10-16T04:51:15;6.4;;;5.1;;
69917;SDS011;57203;42.672;23.334;2022-10-16T04:52:15;7.5;;;5.3;;
69917;SDS011;57203;42.672;23.334;2022-10-16T04:53:15;8.9;;;5.2;;
69917;SDS011;57203;42.672;23.334;2022-10-16T04:54:15;8.9;;;5.3;;
69917;SDS011;57203;42.672;23.334;2022-10-16T04:55:15;7.8;;;4.9;;
69917;SDS011;57203;42.672;23.334;2022-10-16T04:57:16;7.0;;;5.5;;
69917;SDS011;57203;42.672;23.334;2022-10-16T04:58:16;8.3;;;4.8;;
69917;SDS011;57203;42.672;23.334;2022-10-16T04:59:16;6.6;;;4.9;;
69917;SDS011;57203;42.672;23.334;2022-10-16T05:00:16;6.6;;;5.9;;
69917;SDS011;57203;42.672;23.334;2022-10-16T05:01:16;9.6;;;5.0;;
69917;SDS011;57203;42.672;23.334;2022-10-16T05:03:17;8.8;;;5.6;;
69917;SDS011;57203;42.672;23.334;2022-10-16T05:05:17;9.5;;;6.1;;
69917;SDS011;57203;42.672;23.334;2022-10-16T05:06:17;10.7;;;5.2;;
69917;SDS011;57203;42.672;23.334;2022-10-16T05:07:17;8.1;;;5.5;;
69917;SDS011;57203;42.672;23.334;2022-10-16T05:08:18;9.2;;;5.4;;
69917;SDS011;57203;42.672;23.334;2022-10-16T05:09:18;9.6;;;5.5;;
69917;SDS011;57203;42.672;23.334;2022-10-16T05:10:18;9.2;;;5.9;;
69917;SDS011;57203;42.672;23.334;2022-10-16T05:11:18;8.2;;;6.1;;
69917;SDS011;57203;42.672;23.334;2022-10-16T05:12:18;9.6;;;5.5;;
69917;SDS011;57203;42.672;23.334;2022-10-16T05:13:18;8.9;;;5.8;;
69917;SDS011;57203;42.672;23.334;2022-10-16T05:14:19;8.2;;;5.4;;
69917;SDS011;57203;42.672;23.334;2022-10-16T05:15:19;8.2;;;5.2;;
69917;SDS011;57203;42.672;23.334;2022-10-16T05:16:19;8.5;;;5.0;;
69917;SDS011;57203;42.672;23.334;2022-10-16T05:17:19;8.5;;;6.2;;
69917;SDS011;57203;42.672;23.334;2022-10-16T05:18:19;10.1;;;4.9;;
69917;SDS011;57203;42.672;23.334;2022-10-16T05:19:19;8.6;;;5.5;;
69917;SDS011;57203;42.672;23.334;2022-10-16T05:20:20;8.6;;;6.4;;
69917;SDS011;57203;42.672;23.334;2022-10-16T05:21:20;9.2;;;6.2;;
69917;SDS011;57203;42.672;23.334;2022-10-16T05:22:20;10.9;;;6.1;;
69917;SDS011;57203;42.672;23.334;2022-10-16T05:23:20;11.3;;;5.6;;
69917;SDS011;57203;42.672;23.334;2022-10-16T05:24:20;9.0;;;5.7;;
69917;SDS011;57203;42.672;23.334;2022-10-16T05:25:21;8.6;;;5.9;;
69917;SDS011;57203;42.672;23.334;2022-10-16T05:26:21;10.2;;;5.6;;
69917;SDS011;57203;42.672;23.334;2022-10-16T05:27:21;9.8;;;6.1;;
69917;SDS011;57203;42.672;23.334;2022-10-16T05:28:21;10.6;;;6.9;;
69917;SDS011;57203;42.672;23.334;2022-10-16T05:29:21;10.6;;;5.8;;
69917;SDS011;57203;42.672;23.334;2022-10-16T05:30:21;9.7;;;6.1;;
69917;SDS011;57203;42.672;23.334;2022-10-16T05:31:22;10.0;;;5.9;;
69917;SDS011;57203;42.672;23.334;2022-10-16T05:32:22;9.5;;;6.2;;
69917;SDS011;57203;42.672;23.334;2022-10-16T05:33:23;9.8;;;6.1;;
69917;SDS011;57203;42.672;23.334;2022-10-16T05:34:22;9.3;;;5.8;;
69917;SDS011;57203;42.672;23.334;2022-10-16T05:35:22;8.7;;;6.3;;
69917;SDS011;57203;42.672;23.334;2022-10-16T05:37:23;9.5;;;6.4;;
69917;SDS011;57203;42.672;23.334;2022-10-16T05:38:23;10.5;;;5.9;;
69917;SDS011;57203;42.672;23.334;2022-10-16T05:40:23;10.3;;;7.1;;
69917;SDS011;57203;42.672;23.334;2022-10-16T05:41:23;12.2;;;6.3;;
69917;SDS011;57203;42.672;23.334;2022-10-16T05:42:23;11.3;;;6.4;;
69917;SDS011;57203;42.672;23.334;2022-10-16T05:43:24;8.9;;;6.0;;
69917;SDS011;57203;42.672;23.334;2022-10-16T05:44:24;8.9;;;6.5;;
69917;SDS011;57203;42.672;23.334;2022-10-16T05:45:24;11.3;;;5.5;;
69917;SDS011;57203;42.672;23.334;2022-10-16T05:46:24;8.7;;;6.4;;
69917;SDS011;57203;42.672;23.334;2022-10-16T05:47:24;9.3;;;5.6;;
69917;SDS011;57203;42.672;23.334;2022-10-16T05:48:25;9.3;;;6.3;;
69917;SDS011;57203;42.672;23.334;2022-10-16T05:49:25;9.2;;;5.6;;
69917;SDS011;57203;42.672;23.334;2022-10-16T05:50:25;9.2;;;5.8;;
69917;SDS011;57203;42.672;23.334;2022-10-16T05:51:25;9.8;;;5.9;;
69917;SDS011;57203;42.672;23.334;2022-10-16T05:52:26;9.9;;;6.5;;
69917;SDS011;57203;42.672;23.334;2022-10-16T05:53:26;10.1;;;5.9;;
69917;SDS011;57203;42.672;23.334;2022-10-16T05:54:26;10.7;;;6.1;;
69917;SDS011;57203;42.672;23.334;2022-10-16T05:55:26;11.1;;;6.7;;
69917;SDS011;57203;42.672;23.334;2022-10-16T05:56:26;10.5;;;5.8;;
69917;SDS011;57203;42.672;23.334;2022-10-16T05:57:26;9.1;;;6.1;;
69917;SDS011;57203;42.672;23.334;2022-10-16T05:58:28;9.3;;;6.9;;
69917;SDS011;57203;42.672;23.334;2022-10-16T05:59:26;11.3;;;6.6;;
69917;SDS011;57203;42.672;23.334;2022-10-16T06:00:27;9.5;;;5.8;;
69917;SDS011;57203;42.672;23.334;2022-10-16T06:01:27;9.1;;;6.3;;
69917;SDS011;57203;42.672;23.334;2022-10-16T06:02:27;9.4;;;6.0;;
69917;SDS011;57203;42.672;23.334;2022-10-16T06:03:27;9.2;;;6.3;;
69917;SDS011;57203;42.672;23.334;2022-10-16T06:04:27;11.1;;;5.8;;
69917;SDS011;57203;42.672;23.334;2022-10-16T06:05:28;10.3;;;5.6;;
69917;SDS011;57203;42.672;23.334;2022-10-16T06:07:28;8.8;;;5.5;;
69917;SDS011;57203;42.672;23.334;2022-10-16T06:08:28;7.9;;;5.4;;
69917;SDS011;57203;42.672;23.334;2022-10-16T06:09:28;6.8;;;5.0;;
69917;SDS011;57203;42.672;23.334;2022-10-16T06:10:28;7.4;;;5.1;;
69917;SDS011;57203;42.672;23.334;2022-10-16T06:11:29;8.3;;;5.7;;
69917;SDS011;57203;42.672;23.334;2022-10-16T06:13:29;8.3;;;5.3;;
69917;SDS011;57203;42.672;23.334;2022-10-16T06:14:29;7.8;;;5.2;;
69917;SDS011;57203;42.672;23.334;2022-10-16T06:15:29;7.5;;;4.9;;
69917;SDS011;57203;42.672;23.334;2022-10-16T06:16:30;7.4;;;5.5;;
69917;SDS011;57203;42.672;23.334;2022-10-16T06:17:30;8.2;;;5.8;;
69917;SDS011;57203;42.672;23.334;2022-10-16T06:18:30;8.2;;;4.7;;
69917;SDS011;57203;42.672;23.334;2022-10-16T06:19:31;9.8;;;4.5;;
69917;SDS011;57203;42.672;23.334;2022-10-16T06:20:30;8.4;;;5.6;;
69917;SDS011;57203;42.672;23.334;2022-10-16T06:21:30;8.4;;;4.4;;
69917;SDS011;57203;42.672;23.334;2022-10-16T06:22:31;6.6;;;5.1;;
69917;SDS011;57203;42.672;23.334;2022-10-16T06:23:31;7.2;;;5.0;;
69917;SDS011;57203;42.672;23.334;2022-10-16T06:24:31;7.0;;;4.4;;
69917;SDS011;57203;42.672;23.334;2022-10-16T06:25:31;7.0;;;5.2;;
69917;SDS011;57203;42.672;23.334;2022-10-16T06:26:31;7.8;;;4.4;;
69917;SDS011;57203;42.672;23.334;2022-10-16T06:27:32;5.9;;;5.0;;
69917;SDS011;57203;42.672;23.334;2022-10-16T06:28:32;7.5;;;4.7;;
69917;SDS011;57203;42.672;23.334;2022-10-16T06:29:32;8.7;;;4.8;;
69917;SDS011;57203;42.672;23.334;2022-10-16T06:30:32;8.7;;;4.3;;
69917;SDS011;57203;42.672;23.334;2022-10-16T06:31:32;6.0;;;5.1;;
69917;SDS011;57203;42.672;23.334;2022-10-16T06:32:33;8.5;;;4.4;;
69917;SDS011;57203;42.672;23.334;2022-10-16T06:33:33;7.1;;;4.2;;
69917;SDS011;57203;42.672;23.334;2022-10-16T06:35:33;5.7;;;4.5;;
69917;SDS011;57203;42.672;23.334;2022-10-16T06:36:33;8.1;;;4.7;;
69917;SDS011;57203;42.672;23.334;2022-10-16T06:37:33;8.1;;;4.3;;
69917;SDS011;57203;42.672;23.334;2022-10-16T06:38:34;5.8;;;4.0;;
69917;SDS011;57203;42.672;23.334;2022-10-16T06:39:34;5.8;;;4.9;;
69917;SDS011;57203;42.672;23.334;2022-10-16T06:40:34;5.8;;;4.8;;
69917;SDS011;57203;42.672;23.334;2022-10-16T06:41:34;7.9;;;4.2;;
69917;SDS011;57203;42.672;23.334;2022-10-16T06:42:34;6.4;;;4.3;;